sensor_id;sensor_type;location;lat;lon;timestamp;temperature;humidity
39315;DHT22;28703;44.412;11.918;2023-02-11T00:00:56;2.60;95.00
39315;DHT22;28703;44.412;11.918;2023-02-11T00:03:22;2.50;95.00
39315;DHT22;28703;44.412;11.918;2023-02-11T00:05:59;2.50;95.00
39315;DHT22;28703;44.412;11.918;2023-02-11T00:08:28;2.50;95.00
39315;DHT22;28703;44.412;11.918;2023-02-11T00:10:58;2.50;95.30
39315;DHT22;28703;44.412;11.918;2023-02-11T00:13:26;2.40;95.00
39315;DHT22;28703;44.412;11.918;2023-02-11T00:16:04;2.40;95.00
39315;DHT22;28703;44.412;11.918;2023-02-11T00:18:30;2.40;95.10
39315;DHT22;28703;44.412;11.918;2023-02-11T00:21:13;2.30;95.00
39315;DHT22;28703;44.412;11.918;2023-02-11T00:23:40;2.40;95.10
39315;DHT22;28703;44.412;11.918;2023-02-11T00:26:18;2.30;95.00
39315;DHT22;28703;44.412;11.918;2023-02-11T00:28:46;2.40;95.00
39315;DHT22;28703;44.412;11.918;2023-02-11T00:31:13;2.40;95.00
39315;DHT22;28703;44.412;11.918;2023-02-11T00:33:40;2.40;95.00
39315;DHT22;28703;44.412;11.918;2023-02-11T00:36:13;2.40;94.90
39315;DHT22;28703;44.412;11.918;2023-02-11T00:38:41;2.40;94.90
39315;DHT22;28703;44.412;11.918;2023-02-11T00:41:10;2.40;94.90
39315;DHT22;28703;44.412;11.918;2023-02-11T00:43:38;2.40;94.90
39315;DHT22;28703;44.412;11.918;2023-02-11T00:46:04;2.40;94.90
39315;DHT22;28703;44.412;11.918;2023-02-11T00:48:30;2.40;94.90
39315;DHT22;28703;44.412;11.918;2023-02-11T00:50:59;2.30;94.90
39315;DHT22;28703;44.412;11.918;2023-02-11T00:53:25;2.30;94.90
39315;DHT22;28703;44.412;11.918;2023-02-11T00:55:52;2.30;94.90
39315;DHT22;28703;44.412;11.918;2023-02-11T00:58:18;2.30;94.90
39315;DHT22;28703;44.412;11.918;2023-02-11T01:00:44;2.30;94.90
39315;DHT22;28703;44.412;11.918;2023-02-11T01:03:11;2.20;94.80
39315;DHT22;28703;44.412;11.918;2023-02-11T01:05:38;2.20;94.90
39315;DHT22;28703;44.412;11.918;2023-02-11T01:08:04;2.20;94.90
39315;DHT22;28703;44.412;11.918;2023-02-11T01:10:30;2.20;94.90
39315;DHT22;28703;44.412;11.918;2023-02-11T01:12:56;2.20;94.80
39315;DHT22;28703;44.412;11.918;2023-02-11T01:15:24;2.20;94.80
39315;DHT22;28703;44.412;11.918;2023-02-11T01:17:51;2.20;94.80
39315;DHT22;28703;44.412;11.918;2023-02-11T01:20:22;2.10;94.80
39315;DHT22;28703;44.412;11.918;2023-02-11T01:22:49;2.10;94.80
39315;DHT22;28703;44.412;11.918;2023-02-11T01:25:15;2.10;94.80
39315;DHT22;28703;44.412;11.918;2023-02-11T01:27:42;2.10;94.80
39315;DHT22;28703;44.412;11.918;2023-02-11T01:30:11;2.10;94.90
39315;DHT22;28703;44.412;11.918;2023-02-11T01:32:39;2.00;94.80
39315;DHT22;28703;44.412;11.918;2023-02-11T01:35:05;2.00;94.80
39315;DHT22;28703;44.412;11.918;2023-02-11T01:37:32;2.00;94.80
39315;DHT22;28703;44.412;11.918;2023-02-11T01:40:00;2.00;95.00
39315;DHT22;28703;44.412;11.918;2023-02-11T01:42:26;2.00;94.80
39315;DHT22;28703;44.412;11.918;2023-02-11T01:44:54;2.00;94.80
39315;DHT22;28703;44.412;11.918;2023-02-11T01:47:22;2.00;94.80
39315;DHT22;28703;44.412;11.918;2023-02-11T01:49:56;2.00;94.80
39315;DHT22;28703;44.412;11.918;2023-02-11T01:52:34;2.00;94.80
39315;DHT22;28703;44.412;11.918;2023-02-11T01:55:04;1.90;94.80
39315;DHT22;28703;44.412;11.918;2023-02-11T01:57:52;1.90;95.10
39315;DHT22;28703;44.412;11.918;2023-02-11T02:03:17;1.90;94.80
39315;DHT22;28703;44.412;11.918;2023-02-11T02:06:11;1.90;94.70
39315;DHT22;28703;44.412;11.918;2023-02-11T02:08:43;1.80;94.70
39315;DHT22;28703;44.412;11.918;2023-02-11T02:11:12;1.80;94.80
39315;DHT22;28703;44.412;11.918;2023-02-11T02:13:38;1.80;94.80
39315;DHT22;28703;44.412;11.918;2023-02-11T02:16:06;1.80;94.80
39315;DHT22;28703;44.412;11.918;2023-02-11T02:40:19;1.70;94.90
39315;DHT22;28703;44.412;11.918;2023-02-11T02:42:47;1.60;95.00
39315;DHT22;28703;44.412;11.918;2023-02-11T02:45:14;1.60;94.90
39315;DHT22;28703;44.412;11.918;2023-02-11T02:47:40;1.70;94.90
39315;DHT22;28703;44.412;11.918;2023-02-11T02:50:07;1.60;94.80
39315;DHT22;28703;44.412;11.918;2023-02-11T02:53:02;1.70;94.90
39315;DHT22;28703;44.412;11.918;2023-02-11T02:59:05;1.60;94.80
39315;DHT22;28703;44.412;11.918;2023-02-11T03:07:58;1.60;94.80
39315;DHT22;28703;44.412;11.918;2023-02-11T03:10:33;1.60;94.80
39315;DHT22;28703;44.412;11.918;2023-02-11T03:13:01;1.50;94.70
39315;DHT22;28703;44.412;11.918;2023-02-11T03:15:31;1.50;94.60
39315;DHT22;28703;44.412;11.918;2023-02-11T03:17:59;1.50;94.70
39315;DHT22;28703;44.412;11.918;2023-02-11T03:20:27;1.50;94.60
39315;DHT22;28703;44.412;11.918;2023-02-11T03:23:01;1.60;94.60
39315;DHT22;28703;44.412;11.918;2023-02-11T03:25:54;1.60;94.50
39315;DHT22;28703;44.412;11.918;2023-02-11T03:28:41;1.60;95.00
39315;DHT22;28703;44.412;11.918;2023-02-11T03:36:54;1.60;94.70
39315;DHT22;28703;44.412;11.918;2023-02-11T03:39:30;1.60;94.70
39315;DHT22;28703;44.412;11.918;2023-02-11T03:41:58;1.60;94.80
39315;DHT22;28703;44.412;11.918;2023-02-11T03:44:30;1.60;94.70
39315;DHT22;28703;44.412;11.918;2023-02-11T03:46:58;1.60;94.80
39315;DHT22;28703;44.412;11.918;2023-02-11T03:49:44;1.60;94.80
39315;DHT22;28703;44.412;11.918;2023-02-11T03:52:12;1.60;94.80
39315;DHT22;28703;44.412;11.918;2023-02-11T03:54:41;1.50;94.80
39315;DHT22;28703;44.412;11.918;2023-02-11T03:57:08;1.50;94.70
39315;DHT22;28703;44.412;11.918;2023-02-11T03:59:57;1.50;94.70
39315;DHT22;28703;44.412;11.918;2023-02-11T04:02:28;1.50;94.80
39315;DHT22;28703;44.412;11.918;2023-02-11T04:07:39;1.40;94.50
39315;DHT22;28703;44.412;11.918;2023-02-11T04:10:05;1.40;94.80
39315;DHT22;28703;44.412;11.918;2023-02-11T04:15:35;1.40;94.80
39315;DHT22;28703;44.412;11.918;2023-02-11T04:18:01;1.40;94.70
39315;DHT22;28703;44.412;11.918;2023-02-11T04:20:28;1.30;94.70
39315;DHT22;28703;44.412;11.918;2023-02-11T04:22:54;1.40;94.80
39315;DHT22;28703;44.412;11.918;2023-02-11T04:28:05;1.40;95.00
39315;DHT22;28703;44.412;11.918;2023-02-11T04:30:31;1.30;95.00
39315;DHT22;28703;44.412;11.918;2023-02-11T04:32:57;1.30;95.10
39315;DHT22;28703;44.412;11.918;2023-02-11T04:35:23;1.30;95.20
39315;DHT22;28703;44.412;11.918;2023-02-11T04:37:49;1.30;95.30
39315;DHT22;28703;44.412;11.918;2023-02-11T04:40:15;1.20;95.40
39315;DHT22;28703;44.412;11.918;2023-02-11T04:42:41;1.20;95.50
39315;DHT22;28703;44.412;11.918;2023-02-11T04:45:07;1.10;95.40
39315;DHT22;28703;44.412;11.918;2023-02-11T04:47:33;1.20;95.30
39315;DHT22;28703;44.412;11.918;2023-02-11T04:49:59;1.10;95.40
39315;DHT22;28703;44.412;11.918;2023-02-11T04:52:25;1.20;95.30
39315;DHT22;28703;44.412;11.918;2023-02-11T04:54:51;1.10;95.20
39315;DHT22;28703;44.412;11.918;2023-02-11T04:57:20;1.10;95.30
39315;DHT22;28703;44.412;11.918;2023-02-11T04:59:49;1.10;95.40
39315;DHT22;28703;44.412;11.918;2023-02-11T05:02:15;1.10;95.30
39315;DHT22;28703;44.412;11.918;2023-02-11T05:04:41;1.10;95.30
39315;DHT22;28703;44.412;11.918;2023-02-11T05:07:07;1.10;95.40
39315;DHT22;28703;44.412;11.918;2023-02-11T05:09:33;1.10;95.60
39315;DHT22;28703;44.412;11.918;2023-02-11T05:11:58;1.00;95.60
39315;DHT22;28703;44.412;11.918;2023-02-11T05:14:24;1.00;95.40
39315;DHT22;28703;44.412;11.918;2023-02-11T05:16:50;1.00;95.30
39315;DHT22;28703;44.412;11.918;2023-02-11T05:22:19;1.00;95.20
39315;DHT22;28703;44.412;11.918;2023-02-11T05:24:46;1.00;95.00
39315;DHT22;28703;44.412;11.918;2023-02-11T05:27:12;0.90;95.00
39315;DHT22;28703;44.412;11.918;2023-02-11T05:29:41;1.00;95.00
39315;DHT22;28703;44.412;11.918;2023-02-11T05:32:07;1.00;94.90
39315;DHT22;28703;44.412;11.918;2023-02-11T05:34:52;1.00;94.80
39315;DHT22;28703;44.412;11.918;2023-02-11T05:37:18;0.90;94.80
39315;DHT22;28703;44.412;11.918;2023-02-11T05:39:44;0.90;94.70
39315;DHT22;28703;44.412;11.918;2023-02-11T05:42:10;0.90;94.60
39315;DHT22;28703;44.412;11.918;2023-02-11T05:44:36;1.00;94.60
39315;DHT22;28703;44.412;11.918;2023-02-11T05:47:02;0.90;94.50
39315;DHT22;28703;44.412;11.918;2023-02-11T05:49:30;1.00;94.60
39315;DHT22;28703;44.412;11.918;2023-02-11T05:51:56;1.00;94.60
39315;DHT22;28703;44.412;11.918;2023-02-11T05:54:22;1.00;94.70
39315;DHT22;28703;44.412;11.918;2023-02-11T05:59:33;1.00;94.80
39315;DHT22;28703;44.412;11.918;2023-02-11T06:01:59;1.00;95.00
39315;DHT22;28703;44.412;11.918;2023-02-11T06:04:34;1.00;94.90
39315;DHT22;28703;44.412;11.918;2023-02-11T06:07:00;1.00;94.80
39315;DHT22;28703;44.412;11.918;2023-02-11T06:09:29;0.90;94.80
39315;DHT22;28703;44.412;11.918;2023-02-11T06:11:55;0.90;94.70
39315;DHT22;28703;44.412;11.918;2023-02-11T06:14:21;0.90;94.60
39315;DHT22;28703;44.412;11.918;2023-02-11T06:16:47;0.90;94.60
39315;DHT22;28703;44.412;11.918;2023-02-11T06:19:39;0.90;94.60
39315;DHT22;28703;44.412;11.918;2023-02-11T06:22:08;0.90;94.50
39315;DHT22;28703;44.412;11.918;2023-02-11T06:24:37;0.90;94.60
39315;DHT22;28703;44.412;11.918;2023-02-11T06:30:08;0.90;94.60
39315;DHT22;28703;44.412;11.918;2023-02-11T06:32:34;0.90;94.60
39315;DHT22;28703;44.412;11.918;2023-02-11T06:35:01;0.90;94.60
39315;DHT22;28703;44.412;11.918;2023-02-11T06:37:45;0.90;94.70
39315;DHT22;28703;44.412;11.918;2023-02-11T06:40:12;0.90;94.70
39315;DHT22;28703;44.412;11.918;2023-02-11T06:43:02;0.90;94.60
39315;DHT22;28703;44.412;11.918;2023-02-11T06:45:30;0.80;94.60
39315;DHT22;28703;44.412;11.918;2023-02-11T06:47:56;0.80;94.60
39315;DHT22;28703;44.412;11.918;2023-02-11T06:50:25;0.80;94.60
39315;DHT22;28703;44.412;11.918;2023-02-11T06:52:51;0.80;94.60
39315;DHT22;28703;44.412;11.918;2023-02-11T06:59:16;0.90;94.60
39315;DHT22;28703;44.412;11.918;2023-02-11T07:01:43;0.90;94.70
39315;DHT22;28703;44.412;11.918;2023-02-11T07:06:54;0.90;94.80
39315;DHT22;28703;44.412;11.918;2023-02-11T07:09:20;0.90;94.80
39315;DHT22;28703;44.412;11.918;2023-02-11T07:14:36;1.00;94.70
39315;DHT22;28703;44.412;11.918;2023-02-11T07:17:08;1.00;94.70
39315;DHT22;28703;44.412;11.918;2023-02-11T07:19:34;1.00;94.70
39315;DHT22;28703;44.412;11.918;2023-02-11T07:22:00;1.10;94.70
39315;DHT22;28703;44.412;11.918;2023-02-11T07:24:47;1.10;94.70
39315;DHT22;28703;44.412;11.918;2023-02-11T07:27:32;1.20;94.70
39315;DHT22;28703;44.412;11.918;2023-02-11T07:30:00;1.20;94.70
39315;DHT22;28703;44.412;11.918;2023-02-11T07:32:27;1.30;94.70
39315;DHT22;28703;44.412;11.918;2023-02-11T07:34:53;1.30;94.60
39315;DHT22;28703;44.412;11.918;2023-02-11T07:37:19;1.40;94.70
39315;DHT22;28703;44.412;11.918;2023-02-11T07:39:45;1.40;94.70
39315;DHT22;28703;44.412;11.918;2023-02-11T07:42:31;1.50;94.70
39315;DHT22;28703;44.412;11.918;2023-02-11T07:44:58;1.60;94.70
39315;DHT22;28703;44.412;11.918;2023-02-11T07:47:30;1.60;94.70
39315;DHT22;28703;44.412;11.918;2023-02-11T07:49:56;1.60;94.50
39315;DHT22;28703;44.412;11.918;2023-02-11T07:52:44;1.70;94.40
39315;DHT22;28703;44.412;11.918;2023-02-11T07:55:31;1.70;94.60
39315;DHT22;28703;44.412;11.918;2023-02-11T07:57:58;1.80;94.70
39315;DHT22;28703;44.412;11.918;2023-02-11T08:00:24;1.80;94.40
39315;DHT22;28703;44.412;11.918;2023-02-11T08:02:50;1.90;94.40
39315;DHT22;28703;44.412;11.918;2023-02-11T08:05:18;2.00;94.50
39315;DHT22;28703;44.412;11.918;2023-02-11T08:07:44;2.10;94.60
39315;DHT22;28703;44.412;11.918;2023-02-11T08:10:30;2.20;94.70
39315;DHT22;28703;44.412;11.918;2023-02-11T08:13:01;2.30;94.70
39315;DHT22;28703;44.412;11.918;2023-02-11T08:15:32;2.40;94.70
39315;DHT22;28703;44.412;11.918;2023-02-11T08:18:00;2.40;94.80
39315;DHT22;28703;44.412;11.918;2023-02-11T08:23:12;2.60;95.00
39315;DHT22;28703;44.412;11.918;2023-02-11T08:28:29;2.70;94.90
39315;DHT22;28703;44.412;11.918;2023-02-11T08:31:18;2.80;94.90
39315;DHT22;28703;44.412;11.918;2023-02-11T08:36:52;2.90;95.00
39315;DHT22;28703;44.412;11.918;2023-02-11T08:39:21;3.00;95.00
39315;DHT22;28703;44.412;11.918;2023-02-11T08:41:53;3.10;94.90
39315;DHT22;28703;44.412;11.918;2023-02-11T08:44:22;3.10;94.90
39315;DHT22;28703;44.412;11.918;2023-02-11T08:46:49;3.10;94.80
39315;DHT22;28703;44.412;11.918;2023-02-11T08:49:25;3.30;95.00
39315;DHT22;28703;44.412;11.918;2023-02-11T08:51:53;3.40;95.10
39315;DHT22;28703;44.412;11.918;2023-02-11T08:54:23;3.50;94.90
39315;DHT22;28703;44.412;11.918;2023-02-11T08:57:08;3.50;94.80
39315;DHT22;28703;44.412;11.918;2023-02-11T08:59:37;3.60;94.70
39315;DHT22;28703;44.412;11.918;2023-02-11T09:02:11;3.60;94.70
39315;DHT22;28703;44.412;11.918;2023-02-11T09:04:40;3.70;94.80
39315;DHT22;28703;44.412;11.918;2023-02-11T09:09:53;3.80;94.80
39315;DHT22;28703;44.412;11.918;2023-02-11T09:12:21;3.90;94.70
39315;DHT22;28703;44.412;11.918;2023-02-11T09:14:47;4.00;94.60
39315;DHT22;28703;44.412;11.918;2023-02-11T09:17:13;4.00;94.70
39315;DHT22;28703;44.412;11.918;2023-02-11T09:19:58;4.20;94.40
39315;DHT22;28703;44.412;11.918;2023-02-11T09:22:24;4.20;94.50
39315;DHT22;28703;44.412;11.918;2023-02-11T09:24:55;4.30;94.30
39315;DHT22;28703;44.412;11.918;2023-02-11T09:27:28;4.30;94.20
39315;DHT22;28703;44.412;11.918;2023-02-11T09:29:57;4.40;94.40
39315;DHT22;28703;44.412;11.918;2023-02-11T09:32:24;4.50;93.80
39315;DHT22;28703;44.412;11.918;2023-02-11T09:34:52;4.60;93.70
39315;DHT22;28703;44.412;11.918;2023-02-11T09:37:18;4.60;93.60
39315;DHT22;28703;44.412;11.918;2023-02-11T09:40:04;4.70;93.50
39315;DHT22;28703;44.412;11.918;2023-02-11T09:45:21;4.80;93.60
39315;DHT22;28703;44.412;11.918;2023-02-11T09:47:57;4.90;93.60
39315;DHT22;28703;44.412;11.918;2023-02-11T09:55:52;5.20;93.40
39315;DHT22;28703;44.412;11.918;2023-02-11T09:58:33;5.20;93.40
39315;DHT22;28703;44.412;11.918;2023-02-11T10:01:20;5.20;93.40
39315;DHT22;28703;44.412;11.918;2023-02-11T10:03:59;5.30;93.30
39315;DHT22;28703;44.412;11.918;2023-02-11T10:06:56;5.40;93.40
39315;DHT22;28703;44.412;11.918;2023-02-11T10:12:25;5.50;92.90
39315;DHT22;28703;44.412;11.918;2023-02-11T10:20:50;5.80;92.90
39315;DHT22;28703;44.412;11.918;2023-02-11T10:23:22;5.90;92.80
39315;DHT22;28703;44.412;11.918;2023-02-11T10:25:53;5.90;92.80
39315;DHT22;28703;44.412;11.918;2023-02-11T10:28:23;5.90;92.50
39315;DHT22;28703;44.412;11.918;2023-02-11T10:31:35;5.90;92.50
39315;DHT22;28703;44.412;11.918;2023-02-11T10:34:10;6.10;92.70
39315;DHT22;28703;44.412;11.918;2023-02-11T10:36:40;6.10;92.20
39315;DHT22;28703;44.412;11.918;2023-02-11T10:39:12;6.20;92.00
39315;DHT22;28703;44.412;11.918;2023-02-11T10:41:47;6.30;92.10
39315;DHT22;28703;44.412;11.918;2023-02-11T10:44:32;6.50;92.20
39315;DHT22;28703;44.412;11.918;2023-02-11T10:47:12;6.50;92.10
39315;DHT22;28703;44.412;11.918;2023-02-11T10:49:42;6.60;92.20
39315;DHT22;28703;44.412;11.918;2023-02-11T10:52:22;6.60;91.90
39315;DHT22;28703;44.412;11.918;2023-02-11T10:57:59;6.90;91.30
39315;DHT22;28703;44.412;11.918;2023-02-11T11:03:04;7.00;91.00
39315;DHT22;28703;44.412;11.918;2023-02-11T11:05:44;7.10;90.70
39315;DHT22;28703;44.412;11.918;2023-02-11T11:11:21;7.10;89.60
39315;DHT22;28703;44.412;11.918;2023-02-11T11:16:37;7.30;90.40
39315;DHT22;28703;44.412;11.918;2023-02-11T11:21:52;7.50;89.80
39315;DHT22;28703;44.412;11.918;2023-02-11T11:24:56;7.50;90.00
39315;DHT22;28703;44.412;11.918;2023-02-11T11:27:26;7.60;88.60
39315;DHT22;28703;44.412;11.918;2023-02-11T11:29:54;7.70;87.60
39315;DHT22;28703;44.412;11.918;2023-02-11T11:36:09;7.80;87.10
39315;DHT22;28703;44.412;11.918;2023-02-11T11:38:59;7.80;86.80
39315;DHT22;28703;44.412;11.918;2023-02-11T11:41:29;8.00;87.60
39315;DHT22;28703;44.412;11.918;2023-02-11T11:44:01;8.00;87.30
39315;DHT22;28703;44.412;11.918;2023-02-11T11:46:34;8.10;87.20
39315;DHT22;28703;44.412;11.918;2023-02-11T11:49:34;8.20;88.20
39315;DHT22;28703;44.412;11.918;2023-02-11T11:52:09;8.30;87.90
39315;DHT22;28703;44.412;11.918;2023-02-11T11:54:37;8.40;87.90
39315;DHT22;28703;44.412;11.918;2023-02-11T11:57:30;8.40;85.40
39315;DHT22;28703;44.412;11.918;2023-02-11T12:00:05;8.40;86.70
39315;DHT22;28703;44.412;11.918;2023-02-11T12:08:54;8.60;86.30
39315;DHT22;28703;44.412;11.918;2023-02-11T12:11:45;8.80;86.20
39315;DHT22;28703;44.412;11.918;2023-02-11T12:17:48;8.80;85.70
39315;DHT22;28703;44.412;11.918;2023-02-11T12:26:14;9.00;84.50
39315;DHT22;28703;44.412;11.918;2023-02-11T12:29:08;9.10;85.00
39315;DHT22;28703;44.412;11.918;2023-02-11T12:32:16;9.20;84.20
39315;DHT22;28703;44.412;11.918;2023-02-11T12:40:58;9.50;85.40
39315;DHT22;28703;44.412;11.918;2023-02-11T12:43:36;9.60;83.80
39315;DHT22;28703;44.412;11.918;2023-02-11T12:49:26;9.70;84.70
39315;DHT22;28703;44.412;11.918;2023-02-11T13:04:27;9.80;84.50
39315;DHT22;28703;44.412;11.918;2023-02-11T13:06:59;9.80;84.20
39315;DHT22;28703;44.412;11.918;2023-02-11T13:09:33;9.70;83.50
39315;DHT22;28703;44.412;11.918;2023-02-11T13:12:02;9.80;84.30
39315;DHT22;28703;44.412;11.918;2023-02-11T13:14:52;9.80;84.00
39315;DHT22;28703;44.412;11.918;2023-02-11T13:17:29;9.80;83.90
39315;DHT22;28703;44.412;11.918;2023-02-11T13:20:48;9.80;83.40
39315;DHT22;28703;44.412;11.918;2023-02-11T13:23:10;9.90;83.70
39315;DHT22;28703;44.412;11.918;2023-02-11T13:28:50;10.00;83.20
39315;DHT22;28703;44.412;11.918;2023-02-11T13:31:18;10.10;82.30
39315;DHT22;28703;44.412;11.918;2023-02-11T13:33:45;10.20;83.20
39315;DHT22;28703;44.412;11.918;2023-02-11T13:36:32;10.30;82.80
39315;DHT22;28703;44.412;11.918;2023-02-11T13:39:18;10.30;82.30
39315;DHT22;28703;44.412;11.918;2023-02-11T13:41:45;10.40;82.50
39315;DHT22;28703;44.412;11.918;2023-02-11T13:47:01;10.60;83.10
39315;DHT22;28703;44.412;11.918;2023-02-11T13:49:38;10.70;83.40
39315;DHT22;28703;44.412;11.918;2023-02-11T13:52:31;10.80;82.70
39315;DHT22;28703;44.412;11.918;2023-02-11T13:55:19;10.80;82.60
39315;DHT22;28703;44.412;11.918;2023-02-11T14:09:08;11.10;80.50
39315;DHT22;28703;44.412;11.918;2023-02-11T14:11:46;11.20;80.90
39315;DHT22;28703;44.412;11.918;2023-02-11T14:14:32;11.20;81.30
39315;DHT22;28703;44.412;11.918;2023-02-11T14:19:46;11.10;80.80
39315;DHT22;28703;44.412;11.918;2023-02-11T14:25:23;11.10;79.40
39315;DHT22;28703;44.412;11.918;2023-02-11T14:27:54;11.00;79.80
39315;DHT22;28703;44.412;11.918;2023-02-11T14:36:07;10.80;80.60
39315;DHT22;28703;44.412;11.918;2023-02-11T14:39:07;10.80;81.00
39315;DHT22;28703;44.412;11.918;2023-02-11T14:41:57;10.90;82.10
39315;DHT22;28703;44.412;11.918;2023-02-11T14:44:46;11.20;82.40
39315;DHT22;28703;44.412;11.918;2023-02-11T14:47:30;11.60;82.80
39315;DHT22;28703;44.412;11.918;2023-02-11T14:50:00;12.00;82.20
39315;DHT22;28703;44.412;11.918;2023-02-11T14:52:33;12.40;80.90
39315;DHT22;28703;44.412;11.918;2023-02-11T14:55:20;12.80;80.10
39315;DHT22;28703;44.412;11.918;2023-02-11T15:00:33;13.70;80.40
39315;DHT22;28703;44.412;11.918;2023-02-11T15:06:00;14.30;78.60
39315;DHT22;28703;44.412;11.918;2023-02-11T15:08:28;14.60;78.80
39315;DHT22;28703;44.412;11.918;2023-02-11T15:11:15;14.90;78.80
39315;DHT22;28703;44.412;11.918;2023-02-11T15:13:42;15.20;78.00
39315;DHT22;28703;44.412;11.918;2023-02-11T15:16:13;15.60;77.60
39315;DHT22;28703;44.412;11.918;2023-02-11T15:21:34;16.10;77.40
39315;DHT22;28703;44.412;11.918;2023-02-11T15:26:28;16.60;76.40
39315;DHT22;28703;44.412;11.918;2023-02-11T15:28:54;16.80;76.30
39315;DHT22;28703;44.412;11.918;2023-02-11T15:31:23;17.10;76.10
39315;DHT22;28703;44.412;11.918;2023-02-11T15:33:50;17.20;75.00
39315;DHT22;28703;44.412;11.918;2023-02-11T15:36:19;17.10;74.60
39315;DHT22;28703;44.412;11.918;2023-02-11T15:41:51;16.70;74.20
39315;DHT22;28703;44.412;11.918;2023-02-11T15:44:31;16.20;73.70
39315;DHT22;28703;44.412;11.918;2023-02-11T15:47:09;15.80;74.10
39315;DHT22;28703;44.412;11.918;2023-02-11T15:49:35;15.40;74.50
39315;DHT22;28703;44.412;11.918;2023-02-11T15:52:02;15.00;74.70
39315;DHT22;28703;44.412;11.918;2023-02-11T15:54:29;14.70;75.10
39315;DHT22;28703;44.412;11.918;2023-02-11T15:57:07;14.40;74.50
39315;DHT22;28703;44.412;11.918;2023-02-11T15:59:38;14.10;74.40
39315;DHT22;28703;44.412;11.918;2023-02-11T16:04:35;13.60;75.70
39315;DHT22;28703;44.412;11.918;2023-02-11T16:07:55;13.30;76.20
39315;DHT22;28703;44.412;11.918;2023-02-11T16:10:32;13.10;77.00
39315;DHT22;28703;44.412;11.918;2023-02-11T16:18:04;12.20;77.60
39315;DHT22;28703;44.412;11.918;2023-02-11T16:20:56;12.10;77.60
39315;DHT22;28703;44.412;11.918;2023-02-11T16:23:34;11.80;77.40
39315;DHT22;28703;44.412;11.918;2023-02-11T16:26:06;11.70;77.70
39315;DHT22;28703;44.412;11.918;2023-02-11T16:28:36;11.50;78.60
39315;DHT22;28703;44.412;11.918;2023-02-11T16:31:03;11.30;79.40
39315;DHT22;28703;44.412;11.918;2023-02-11T16:33:48;11.20;80.00
39315;DHT22;28703;44.412;11.918;2023-02-11T16:36:20;11.00;80.60
39315;DHT22;28703;44.412;11.918;2023-02-11T16:38:48;10.90;80.60
39315;DHT22;28703;44.412;11.918;2023-02-11T16:41:14;10.70;80.70
39315;DHT22;28703;44.412;11.918;2023-02-11T16:43:40;10.60;81.40
39315;DHT22;28703;44.412;11.918;2023-02-11T16:46:06;10.40;81.90
39315;DHT22;28703;44.412;11.918;2023-02-11T16:48:33;10.30;82.10
39315;DHT22;28703;44.412;11.918;2023-02-11T16:51:02;10.20;82.00
39315;DHT22;28703;44.412;11.918;2023-02-11T16:56:16;10.00;83.00
39315;DHT22;28703;44.412;11.918;2023-02-11T16:58:44;9.80;83.50
39315;DHT22;28703;44.412;11.918;2023-02-11T17:01:10;9.70;84.00
39315;DHT22;28703;44.412;11.918;2023-02-11T17:03:55;9.50;84.00
39315;DHT22;28703;44.412;11.918;2023-02-11T17:06:21;9.40;84.30
39315;DHT22;28703;44.412;11.918;2023-02-11T17:08:47;9.30;85.70
39315;DHT22;28703;44.412;11.918;2023-02-11T17:11:13;9.20;85.20
39315;DHT22;28703;44.412;11.918;2023-02-11T17:13:42;9.10;85.30
39315;DHT22;28703;44.412;11.918;2023-02-11T17:18:59;9.00;85.80
39315;DHT22;28703;44.412;11.918;2023-02-11T17:21:25;8.90;86.40
39315;DHT22;28703;44.412;11.918;2023-02-11T17:24:10;8.80;86.90
39315;DHT22;28703;44.412;11.918;2023-02-11T17:26:37;8.70;87.40
39315;DHT22;28703;44.412;11.918;2023-02-11T17:29:05;8.60;88.00
39315;DHT22;28703;44.412;11.918;2023-02-11T17:31:31;8.50;88.40
39315;DHT22;28703;44.412;11.918;2023-02-11T17:33:58;8.40;88.80
39315;DHT22;28703;44.412;11.918;2023-02-11T17:36:25;8.30;89.00
39315;DHT22;28703;44.412;11.918;2023-02-11T17:38:51;8.20;89.10
39315;DHT22;28703;44.412;11.918;2023-02-11T17:41:19;8.10;89.60
39315;DHT22;28703;44.412;11.918;2023-02-11T17:43:45;8.00;89.80
39315;DHT22;28703;44.412;11.918;2023-02-11T17:46:11;7.90;90.00
39315;DHT22;28703;44.412;11.918;2023-02-11T17:52:25;7.80;90.30
39315;DHT22;28703;44.412;11.918;2023-02-11T17:57:38;7.60;90.40
39315;DHT22;28703;44.412;11.918;2023-02-11T18:00:05;7.50;90.50
39315;DHT22;28703;44.412;11.918;2023-02-11T18:02:38;7.40;90.60
39315;DHT22;28703;44.412;11.918;2023-02-11T18:05:05;7.40;90.60
39315;DHT22;28703;44.412;11.918;2023-02-11T18:07:34;7.30;90.60
39315;DHT22;28703;44.412;11.918;2023-02-11T18:12:27;7.20;91.00
39315;DHT22;28703;44.412;11.918;2023-02-11T18:14:54;7.10;91.20
39315;DHT22;28703;44.412;11.918;2023-02-11T18:17:20;7.10;91.40
39315;DHT22;28703;44.412;11.918;2023-02-11T18:19:48;7.10;91.60
39315;DHT22;28703;44.412;11.918;2023-02-11T18:22:15;7.00;91.60
39315;DHT22;28703;44.412;11.918;2023-02-11T18:24:44;6.90;91.70
39315;DHT22;28703;44.412;11.918;2023-02-11T18:27:15;6.90;91.70
39315;DHT22;28703;44.412;11.918;2023-02-11T18:29:41;6.80;91.80
39315;DHT22;28703;44.412;11.918;2023-02-11T18:32:07;6.80;91.80
39315;DHT22;28703;44.412;11.918;2023-02-11T18:34:32;6.70;91.80
39315;DHT22;28703;44.412;11.918;2023-02-11T18:36:58;6.70;91.80
39315;DHT22;28703;44.412;11.918;2023-02-11T18:39:24;6.60;92.00
39315;DHT22;28703;44.412;11.918;2023-02-11T18:41:55;6.60;92.10
39315;DHT22;28703;44.412;11.918;2023-02-11T18:44:24;6.60;92.30
39315;DHT22;28703;44.412;11.918;2023-02-11T18:46:51;6.50;92.40
39315;DHT22;28703;44.412;11.918;2023-02-11T18:49:18;6.50;92.50
39315;DHT22;28703;44.412;11.918;2023-02-11T18:51:44;6.50;92.50
39315;DHT22;28703;44.412;11.918;2023-02-11T18:54:10;6.40;92.30
39315;DHT22;28703;44.412;11.918;2023-02-11T18:56:36;6.40;92.30
39315;DHT22;28703;44.412;11.918;2023-02-11T18:59:21;6.30;92.40
39315;DHT22;28703;44.412;11.918;2023-02-11T19:01:47;6.30;92.40
39315;DHT22;28703;44.412;11.918;2023-02-11T19:04:14;6.30;92.10
39315;DHT22;28703;44.412;11.918;2023-02-11T19:07:03;6.30;91.80
39315;DHT22;28703;44.412;11.918;2023-02-11T19:09:29;6.30;91.70
39315;DHT22;28703;44.412;11.918;2023-02-11T19:11:57;6.30;91.60
39315;DHT22;28703;44.412;11.918;2023-02-11T19:14:36;6.30;91.80
39315;DHT22;28703;44.412;11.918;2023-02-11T19:17:05;6.40;91.60
39315;DHT22;28703;44.412;11.918;2023-02-11T19:19:39;6.40;91.60
39315;DHT22;28703;44.412;11.918;2023-02-11T19:22:08;6.40;91.70
39315;DHT22;28703;44.412;11.918;2023-02-11T19:24:34;6.40;91.70
39315;DHT22;28703;44.412;11.918;2023-02-11T19:27:03;6.40;91.70
39315;DHT22;28703;44.412;11.918;2023-02-11T19:32:32;6.30;92.00
39315;DHT22;28703;44.412;11.918;2023-02-11T19:34:58;6.30;91.90